createdAt,value
2022-10-21T00:01:52.145Z,13.20
2022-10-21T00:04:18.833Z,13.30
2022-10-21T00:06:46.850Z,13.40
2022-10-21T00:09:13.664Z,13.40
2022-10-21T00:11:40.561Z,13.20
2022-10-21T00:14:07.325Z,13.60
2022-10-21T00:16:34.124Z,13.20
2022-10-21T00:19:00.787Z,13.20
2022-10-21T00:21:27.501Z,13.20
2022-10-21T00:23:54.669Z,13.20
2022-10-21T00:26:21.606Z,13.20
2022-10-21T00:28:48.292Z,13.30
2022-10-21T00:31:15.865Z,13.30
2022-10-21T00:33:43.009Z,13.30
2022-10-21T00:36:14.745Z,13.20
2022-10-21T00:38:43.494Z,13.50
2022-10-21T00:41:10.393Z,12.90
2022-10-21T00:44:14.273Z,13.10
2022-10-21T00:46:52.151Z,13.20
2022-10-21T00:49:34.136Z,13.30
2022-10-21T00:52:03.614Z,13.40
2022-10-21T00:54:31.890Z,13.20
2022-10-21T00:56:59.745Z,13.20
2022-10-21T00:59:31.422Z,13.30
2022-10-21T01:01:58.173Z,13.30
2022-10-21T01:04:25.081Z,13.30
2022-10-21T01:06:52.189Z,13.20
2022-10-21T01:09:21.386Z,13.30
2022-10-21T01:11:49.313Z,13.30
2022-10-21T01:14:32.927Z,13.60
2022-10-21T01:17:20.436Z,13.40
2022-10-21T01:20:27.552Z,14.00
2022-10-21T01:23:24.517Z,13.50
2022-10-21T01:26:10.179Z,13.30
2022-10-21T01:28:49.758Z,13.30
2022-10-21T01:31:26.246Z,13.20
2022-10-21T01:34:11.068Z,13.30
2022-10-21T01:36:43.246Z,13.20
2022-10-21T01:39:23.026Z,13.10
2022-10-21T01:42:03.745Z,13.00
2022-10-21T01:44:39.848Z,13.10
2022-10-21T01:47:17.818Z,13.10
2022-10-21T01:49:53.952Z,13.10
2022-10-21T01:52:21.448Z,12.80
2022-10-21T01:55:11.492Z,12.60
2022-10-21T01:57:43.373Z,12.90
2022-10-21T02:00:10.818Z,13.00
2022-10-21T02:02:42.439Z,12.90
2022-10-21T02:05:20.738Z,12.70
2022-10-21T02:07:48.462Z,13.00
2022-10-21T02:10:17.058Z,13.10
2022-10-21T02:12:47.817Z,13.10
2022-10-21T02:15:16.246Z,13.20
2022-10-21T02:17:48.973Z,13.20
2022-10-21T02:20:17.683Z,13.20
2022-10-21T02:22:46.911Z,13.50
2022-10-21T02:25:28.414Z,13.30
2022-10-21T02:27:55.442Z,13.70
2022-10-21T02:30:22.617Z,13.40
2022-10-21T02:33:09.215Z,13.40
2022-10-21T02:36:01.686Z,13.20
2022-10-21T02:38:33.423Z,13.20
2022-10-21T02:41:07.334Z,13.30
2022-10-21T02:43:38.965Z,13.10
2022-10-21T02:46:09.255Z,13.50
2022-10-21T02:48:37.550Z,13.20
2022-10-21T02:51:07.035Z,13.20
2022-10-21T02:53:34.813Z,13.10
2022-10-21T02:56:01.730Z,13.20
2022-10-21T02:58:28.991Z,13.30
2022-10-21T03:00:55.718Z,13.40
2022-10-21T03:03:22.566Z,13.40
2022-10-21T03:05:49.431Z,13.40
2022-10-21T03:08:16.227Z,13.40
2022-10-21T03:10:42.938Z,13.40
2022-10-21T03:13:09.750Z,13.60
2022-10-21T03:15:36.404Z,13.60
2022-10-21T03:18:03.138Z,13.30
2022-10-21T03:20:29.789Z,13.30
2022-10-21T03:22:56.454Z,13.90
2022-10-21T03:25:23.110Z,13.40
2022-10-21T03:27:50.799Z,13.20
2022-10-21T03:30:17.785Z,13.60
2022-10-21T03:32:44.434Z,13.40
2022-10-21T03:35:11.246Z,14.10
2022-10-21T03:37:37.918Z,13.40
2022-10-21T03:40:08.634Z,13.30
2022-10-21T03:42:38.429Z,13.20
2022-10-21T03:45:05.661Z,13.00
2022-10-21T03:47:32.338Z,13.20
2022-10-21T03:49:59.022Z,13.10
2022-10-21T03:52:25.699Z,13.10
2022-10-21T03:54:52.411Z,13.10
2022-10-21T03:57:19.200Z,13.00
2022-10-21T03:59:45.881Z,12.90
2022-10-21T04:02:12.549Z,13.30
2022-10-21T04:04:39.206Z,13.20
2022-10-21T04:07:05.863Z,14.00
2022-10-21T04:09:32.508Z,13.70
2022-10-21T04:11:59.192Z,14.00
2022-10-21T04:14:25.849Z,13.80
2022-10-21T04:17:02.113Z,13.30
2022-10-21T04:19:29.333Z,14.30
2022-10-21T04:21:55.987Z,13.70
2022-10-21T04:24:22.639Z,14.10
2022-10-21T04:26:49.362Z,13.50
2022-10-21T04:29:16.162Z,13.20
2022-10-21T04:31:42.882Z,14.20
2022-10-21T04:34:10.385Z,13.40
2022-10-21T04:36:37.098Z,13.60
2022-10-21T04:39:04.176Z,13.50
2022-10-21T04:41:31.979Z,13.80
2022-10-21T04:43:58.730Z,13.00
2022-10-21T04:46:25.413Z,13.00
2022-10-21T04:48:52.158Z,13.20
2022-10-21T04:51:18.924Z,13.40
2022-10-21T04:53:45.689Z,13.40
2022-10-21T04:56:12.720Z,13.00
2022-10-21T04:58:39.393Z,13.10
2022-10-21T05:01:06.079Z,13.10
2022-10-21T05:03:32.811Z,13.60
2022-10-21T05:05:59.517Z,13.20
2022-10-21T05:08:26.273Z,13.80
2022-10-21T05:11:00.929Z,13.40
2022-10-21T05:13:31.073Z,13.50
2022-10-21T05:15:59.576Z,13.50
2022-10-21T05:18:26.280Z,13.50
2022-10-21T05:20:54.470Z,13.60
2022-10-21T05:23:21.482Z,14.20
2022-10-21T05:25:48.963Z,14.10
2022-10-21T05:28:15.639Z,14.30
2022-10-21T05:33:14.421Z,14.00
2022-10-21T05:35:41.340Z,13.40
2022-10-21T05:38:08.005Z,13.20
2022-10-21T05:40:34.816Z,12.90
2022-10-21T05:43:01.746Z,13.30
2022-10-21T05:45:28.493Z,13.10
2022-10-21T05:47:55.159Z,13.20
2022-10-21T05:50:21.908Z,13.20
2022-10-21T05:52:48.622Z,13.30
2022-10-21T05:55:15.678Z,13.30
2022-10-21T05:57:42.435Z,13.20
2022-10-21T06:00:10.097Z,13.20
2022-10-21T06:02:37.213Z,13.20
2022-10-21T06:05:04.420Z,13.20
2022-10-21T06:07:31.115Z,13.20
2022-10-21T06:09:57.931Z,13.20
2022-10-21T06:12:25.087Z,13.50
2022-10-21T06:14:51.868Z,13.20
2022-10-21T06:17:18.553Z,13.30
2022-10-21T06:19:47.474Z,13.40
2022-10-21T06:22:17.561Z,14.00
2022-10-21T06:24:44.426Z,13.60
2022-10-21T06:27:11.248Z,13.90
2022-10-21T06:29:37.996Z,14.00
2022-10-21T06:32:04.869Z,14.20
2022-10-21T06:34:31.617Z,14.10
2022-10-21T06:36:58.355Z,13.60
2022-10-21T06:39:25.203Z,13.90
2022-10-21T06:41:51.893Z,13.90
2022-10-21T06:44:18.626Z,13.80
2022-10-21T06:46:45.434Z,13.70
2022-10-21T06:49:12.117Z,13.60
2022-10-21T06:51:38.848Z,13.30
2022-10-21T06:54:05.598Z,13.30
2022-10-21T06:56:32.721Z,13.40
2022-10-21T06:58:59.582Z,13.70
2022-10-21T07:01:35.177Z,13.30
2022-10-21T07:04:09.228Z,13.70
2022-10-21T07:06:36.475Z,13.10
2022-10-21T07:09:05.105Z,13.40
2022-10-21T07:11:31.906Z,13.20
2022-10-21T07:14:00.866Z,13.30
2022-10-21T07:16:29.995Z,13.30
2022-10-21T07:18:57.247Z,13.40
2022-10-21T07:21:26.565Z,13.50
2022-10-21T07:23:56.617Z,13.40
2022-10-21T07:26:28.134Z,13.50
2022-10-21T07:28:57.918Z,13.60
2022-10-21T07:31:24.649Z,13.80
2022-10-21T07:33:51.591Z,14.00
2022-10-21T07:36:21.503Z,13.80
2022-10-21T07:38:50.239Z,13.80
2022-10-21T07:41:23.331Z,13.80
2022-10-21T07:43:50.807Z,13.80
2022-10-21T07:46:18.650Z,13.80
2022-10-21T07:48:45.364Z,13.80
2022-10-21T07:51:16.013Z,14.40
2022-10-21T07:53:43.015Z,13.90
2022-10-21T07:56:16.393Z,13.90
2022-10-21T07:58:44.401Z,13.90
2022-10-21T08:01:11.563Z,14.00
2022-10-21T08:03:39.084Z,14.80
2022-10-21T08:06:07.246Z,13.90
2022-10-21T08:08:34.875Z,13.90
2022-10-21T08:11:02.846Z,13.90
2022-10-21T08:13:31.567Z,14.30
2022-10-21T08:15:59.403Z,13.90
2022-10-21T08:18:26.883Z,13.70
2022-10-21T08:20:54.488Z,13.50
2022-10-21T08:23:26.517Z,13.50
2022-10-21T08:25:57.015Z,13.60
2022-10-21T08:28:25.680Z,13.60
2022-10-21T08:30:52.871Z,14.20
2022-10-21T08:33:19.786Z,13.60
2022-10-21T08:35:46.453Z,13.90
2022-10-21T08:38:13.310Z,14.50
2022-10-21T08:40:50.087Z,14.40
2022-10-21T08:43:31.321Z,14.20
2022-10-21T08:46:15.809Z,14.20
2022-10-21T08:48:58.746Z,14.20
2022-10-21T08:51:33.049Z,14.50
2022-10-21T08:54:11.980Z,14.60
2022-10-21T08:56:38.705Z,14.90
2022-10-21T08:59:19.044Z,14.90
2022-10-21T09:02:18.220Z,15.50
2022-10-21T09:05:20.214Z,15.00
2022-10-21T09:08:07.695Z,15.20
2022-10-21T09:10:45.278Z,15.30
2022-10-21T09:13:41.934Z,15.40
2022-10-21T09:16:11.643Z,15.50
2022-10-21T09:19:12.070Z,15.70
2022-10-21T09:21:38.768Z,15.80
2022-10-21T09:24:35.445Z,15.80
2022-10-21T09:27:04.398Z,15.70
2022-10-21T09:29:32.848Z,15.70
2022-10-21T09:32:22.105Z,15.70
2022-10-21T09:35:02.253Z,15.90
2022-10-21T09:37:38.397Z,15.90
2022-10-21T09:40:19.902Z,15.90
2022-10-21T09:42:50.082Z,15.70
2022-10-21T09:45:26.906Z,15.50
2022-10-21T09:48:18.931Z,15.50
2022-10-21T09:50:53.528Z,15.40
2022-10-21T09:53:53.716Z,15.40
2022-10-21T09:56:39.622Z,15.30
2022-10-21T09:59:09.294Z,15.40
2022-10-21T10:01:37.880Z,15.70
2022-10-21T10:04:13.978Z,15.40
2022-10-21T10:06:44.630Z,15.40
2022-10-21T10:09:16.362Z,15.40
2022-10-21T10:11:55.189Z,15.50
2022-10-21T10:14:31.936Z,15.40
2022-10-21T10:17:19.299Z,15.30
2022-10-21T10:20:04.646Z,15.80
2022-10-21T10:22:33.684Z,15.50
2022-10-21T10:25:24.052Z,15.60
2022-10-21T10:27:59.804Z,15.60
2022-10-21T10:30:37.385Z,15.60
2022-10-21T10:33:15.449Z,15.60
2022-10-21T10:35:52.868Z,15.50
2022-10-21T10:38:32.970Z,15.60
2022-10-21T10:41:08.618Z,15.60
2022-10-21T10:43:47.010Z,15.60
2022-10-21T10:46:30.516Z,15.40
2022-10-21T10:49:04.606Z,15.30
2022-10-21T10:51:34.768Z,15.20
2022-10-21T10:54:07.570Z,15.30
2022-10-21T10:57:15.439Z,15.10
2022-10-21T11:00:05.416Z,15.10
2022-10-21T11:02:48.109Z,15.00
2022-10-21T11:05:17.519Z,14.90
2022-10-21T11:07:46.390Z,14.90
2022-10-21T11:10:37.144Z,14.80
2022-10-21T11:13:10.056Z,14.70
2022-10-21T11:15:54.978Z,14.60
2022-10-21T11:18:37.585Z,14.50
2022-10-21T11:21:22.459Z,14.40
2022-10-21T11:24:04.408Z,14.40
2022-10-21T11:26:45.554Z,14.40
2022-10-21T11:29:33.325Z,14.40
2022-10-21T11:32:21.339Z,14.30
2022-10-21T11:35:01.231Z,14.30
2022-10-21T11:37:46.347Z,14.20
2022-10-21T11:40:48.239Z,14.30
2022-10-21T11:43:33.521Z,14.30
2022-10-21T11:46:06.925Z,14.30
2022-10-21T11:48:54.751Z,14.30
2022-10-21T11:51:48.582Z,14.50
2022-10-21T11:55:09.047Z,14.50
2022-10-21T11:57:52.177Z,14.60
2022-10-21T12:00:25.489Z,14.50
2022-10-21T12:02:54.888Z,14.50
2022-10-21T12:05:37.069Z,14.60
2022-10-21T12:08:15.626Z,14.50
2022-10-21T12:11:00.253Z,14.50
2022-10-21T12:13:31.047Z,14.50
2022-10-21T12:16:05.567Z,14.60
2022-10-21T12:18:33.728Z,14.60
2022-10-21T12:21:00.759Z,14.80
2022-10-21T12:23:30.552Z,14.90
2022-10-21T12:26:24.513Z,15.00
2022-10-21T12:28:55.214Z,14.80
2022-10-21T12:31:52.184Z,14.90
2022-10-21T12:34:19.237Z,15.00
2022-10-21T12:36:51.641Z,14.90
2022-10-21T12:39:48.625Z,15.40
2022-10-21T12:42:18.789Z,14.80
2022-10-21T12:44:48.321Z,14.90
2022-10-21T12:47:31.830Z,14.80
2022-10-21T12:50:18.826Z,15.00
2022-10-21T12:52:47.226Z,15.00
2022-10-21T12:55:25.171Z,15.30
2022-10-21T12:58:01.365Z,15.20
2022-10-21T13:00:28.307Z,15.20
2022-10-21T13:02:58.596Z,15.20
2022-10-21T13:05:37.620Z,15.20
2022-10-21T13:08:22.859Z,15.10
2022-10-21T13:11:05.250Z,15.20
2022-10-21T13:13:43.428Z,15.20
2022-10-21T13:16:15.924Z,15.10
2022-10-21T13:18:52.220Z,15.20
2022-10-21T13:21:29.467Z,15.20
2022-10-21T13:24:05.476Z,15.10
2022-10-21T13:26:32.610Z,15.10
2022-10-21T13:29:05.298Z,15.30
2022-10-21T13:31:32.219Z,15.10
2022-10-21T13:33:59.572Z,15.30
2022-10-21T13:36:48.047Z,15.20
2022-10-21T13:39:34.595Z,15.20
2022-10-21T13:42:17.284Z,15.10
2022-10-21T13:44:57.210Z,15.10
2022-10-21T13:47:33.302Z,15.20
2022-10-21T13:50:18.701Z,15.40
2022-10-21T13:52:45.664Z,15.50
2022-10-21T13:55:21.316Z,15.60
2022-10-21T13:57:53.508Z,15.80
2022-10-21T14:00:29.961Z,15.70
2022-10-21T14:03:02.640Z,15.60
2022-10-21T14:05:40.527Z,15.50
2022-10-21T14:08:25.275Z,15.50
2022-10-21T14:10:58.333Z,15.60
2022-10-21T14:13:28.932Z,15.60
2022-10-21T14:15:56.342Z,15.40
2022-10-21T14:18:37.154Z,15.50
2022-10-21T14:21:05.594Z,15.40
2022-10-21T14:23:33.671Z,15.40
2022-10-21T14:26:07.532Z,15.50
2022-10-21T14:28:35.799Z,15.30
2022-10-21T14:33:43.317Z,15.50
2022-10-21T14:36:26.055Z,15.50
2022-10-21T14:39:00.624Z,15.70
2022-10-21T14:41:41.313Z,15.40
2022-10-21T14:44:20.019Z,15.30
2022-10-21T14:46:49.426Z,15.30
2022-10-21T14:49:22.464Z,15.30
2022-10-21T14:51:50.117Z,15.40
2022-10-21T14:54:35.757Z,15.40
2022-10-21T14:57:04.482Z,15.20
2022-10-21T14:59:33.925Z,15.30
2022-10-21T15:02:01.637Z,15.30
2022-10-21T15:04:55.094Z,15.70
2022-10-21T15:10:04.872Z,15.60
2022-10-21T15:12:50.298Z,15.30
2022-10-21T15:15:54.673Z,15.30
2022-10-21T15:18:26.837Z,15.30
2022-10-21T15:20:55.241Z,15.30
2022-10-21T15:23:37.908Z,15.30
2022-10-21T15:26:12.302Z,15.30
2022-10-21T15:28:41.679Z,15.30
2022-10-21T15:31:15.958Z,15.30
2022-10-21T15:33:42.842Z,15.40
2022-10-21T15:36:12.999Z,15.30
2022-10-21T15:38:46.754Z,15.30
2022-10-21T15:41:19.372Z,15.30
2022-10-21T15:44:02.291Z,15.10
2022-10-21T15:46:30.722Z,15.20
2022-10-21T15:49:00.491Z,15.10
2022-10-21T15:51:27.282Z,15.20
2022-10-21T15:53:54.029Z,15.00
2022-10-21T15:56:20.741Z,15.00
2022-10-21T15:58:47.493Z,14.80
2022-10-21T16:01:17.113Z,14.90
2022-10-21T16:03:45.090Z,14.80
2022-10-21T16:06:17.154Z,14.70
2022-10-21T16:08:44.518Z,14.70
2022-10-21T16:11:25.529Z,14.70
2022-10-21T16:14:01.631Z,14.80
2022-10-21T16:16:28.392Z,14.90
2022-10-21T16:18:55.156Z,14.60
2022-10-21T16:21:23.202Z,14.50
2022-10-21T16:23:50.204Z,14.50
2022-10-21T16:26:23.404Z,14.50
2022-10-21T16:28:51.497Z,14.40
2022-10-21T16:31:18.987Z,14.40
2022-10-21T16:33:45.904Z,14.60
2022-10-21T16:36:16.827Z,14.60
2022-10-21T16:38:45.418Z,14.60
2022-10-21T16:41:18.096Z,14.80
2022-10-21T16:43:45.599Z,15.00
2022-10-21T16:46:32.025Z,14.60
2022-10-21T16:49:00.116Z,14.60
2022-10-21T16:51:29.521Z,14.70
2022-10-21T16:53:56.720Z,14.70
2022-10-21T16:56:23.668Z,14.50
2022-10-21T16:58:51.730Z,14.50
2022-10-21T17:01:21.645Z,14.50
2022-10-21T17:03:48.536Z,14.70
2022-10-21T17:06:17.584Z,14.60
2022-10-21T17:08:44.305Z,14.50
2022-10-21T17:11:18.666Z,15.00
2022-10-21T17:13:46.061Z,14.50
2022-10-21T17:16:13.360Z,15.00
2022-10-21T17:18:40.168Z,14.60
2022-10-21T17:21:07.207Z,14.70
2022-10-21T17:23:33.958Z,14.50
2022-10-21T17:26:00.668Z,14.50
2022-10-21T17:28:27.331Z,14.60
2022-10-21T17:30:54.834Z,14.50
2022-10-21T17:33:21.598Z,14.50
2022-10-21T17:35:48.433Z,14.50
2022-10-21T17:38:15.119Z,14.60
2022-10-21T17:40:41.905Z,14.80
2022-10-21T17:43:08.647Z,14.60
2022-10-21T17:45:35.910Z,14.70
2022-10-21T17:48:03.402Z,14.70
2022-10-21T17:50:31.862Z,14.70
2022-10-21T17:52:59.431Z,14.60
2022-10-21T17:55:27.026Z,14.60
2022-10-21T17:57:53.744Z,14.50
2022-10-21T18:00:20.523Z,14.60
2022-10-21T18:02:47.231Z,14.60
2022-10-21T18:05:13.964Z,14.60
2022-10-21T18:07:40.758Z,14.50
2022-10-21T18:10:08.496Z,14.60
2022-10-21T18:12:35.648Z,14.50
2022-10-21T18:15:03.089Z,14.90
2022-10-21T18:17:29.825Z,14.50
2022-10-21T18:19:56.559Z,15.20
2022-10-21T18:22:23.426Z,14.60
2022-10-21T18:24:50.978Z,14.50
2022-10-21T18:27:17.697Z,14.50
2022-10-21T18:29:44.385Z,14.90
2022-10-21T18:32:13.831Z,14.50
2022-10-21T18:34:42.355Z,14.40
2022-10-21T18:37:09.397Z,14.40
2022-10-21T18:39:36.105Z,14.40
2022-10-21T18:42:02.769Z,14.80
2022-10-21T18:44:30.374Z,14.40
2022-10-21T18:46:57.074Z,14.40
2022-10-21T18:49:23.809Z,14.60
2022-10-21T18:51:50.570Z,14.70
2022-10-21T18:54:17.392Z,14.20
2022-10-21T18:56:45.006Z,14.30
2022-10-21T18:59:12.406Z,14.30
2022-10-21T19:01:40.334Z,14.30
2022-10-21T19:04:07.433Z,14.40
2022-10-21T19:06:40.981Z,14.70
2022-10-21T19:09:14.995Z,14.20
2022-10-21T19:11:42.783Z,14.20
2022-10-21T19:14:13.879Z,14.30
2022-10-21T19:16:41.937Z,14.40
2022-10-21T19:19:08.988Z,14.20
2022-10-21T19:21:36.015Z,14.20
2022-10-21T19:24:03.957Z,14.20
2022-10-21T19:26:32.519Z,14.60
2022-10-21T19:29:13.282Z,14.20
2022-10-21T19:31:41.289Z,14.20
2022-10-21T19:34:08.134Z,14.30
2022-10-21T19:36:35.216Z,14.30
2022-10-21T19:39:02.030Z,14.30
2022-10-21T19:41:28.823Z,14.40
2022-10-21T19:43:59.293Z,14.40
2022-10-21T19:46:28.190Z,14.30
2022-10-21T19:48:55.590Z,14.40
2022-10-21T19:51:24.455Z,14.40
2022-10-21T19:53:52.881Z,14.70
2022-10-21T19:56:23.790Z,15.30
2022-10-21T19:58:54.107Z,14.40
2022-10-21T20:01:26.633Z,14.40
2022-10-21T20:03:54.772Z,14.50
2022-10-21T20:06:27.810Z,14.40
2022-10-21T20:08:59.848Z,14.50
2022-10-21T20:11:27.756Z,14.40
2022-10-21T20:13:55.264Z,14.70
2022-10-21T20:16:30.397Z,14.90
2022-10-21T20:18:58.051Z,14.30
2022-10-21T20:21:25.232Z,14.40
2022-10-21T20:23:52.061Z,14.40
2022-10-21T20:26:19.236Z,14.30
2022-10-21T20:28:46.133Z,14.30
2022-10-21T20:31:15.293Z,14.30
2022-10-21T20:33:44.332Z,14.20
2022-10-21T20:36:13.150Z,14.20
2022-10-21T20:38:40.239Z,14.30
2022-10-21T20:41:10.354Z,14.10
2022-10-21T20:43:39.341Z,14.10
2022-10-21T20:46:11.182Z,14.20
2022-10-21T20:48:45.033Z,14.00
2022-10-21T20:51:14.880Z,13.90
2022-10-21T20:56:19.263Z,14.20
2022-10-21T20:58:46.297Z,14.00
2022-10-21T21:01:15.045Z,14.10
2022-10-21T21:03:42.925Z,14.20
2022-10-21T21:06:11.665Z,14.20
2022-10-21T21:08:48.605Z,14.10
2022-10-21T21:11:20.631Z,14.50
2022-10-21T21:13:47.756Z,14.90
2022-10-21T21:16:17.633Z,14.10
2022-10-21T21:18:54.106Z,14.20
2022-10-21T21:21:22.607Z,14.20
2022-10-21T21:23:50.204Z,14.30
2022-10-21T21:26:26.664Z,14.40
2022-10-21T21:28:54.315Z,14.30
2022-10-21T21:31:23.061Z,14.60
2022-10-21T21:33:50.067Z,14.10
2022-10-21T21:36:18.369Z,14.90
2022-10-21T21:38:45.858Z,14.30
2022-10-21T21:41:15.076Z,14.10
2022-10-21T21:43:43.649Z,14.10
2022-10-21T21:46:10.526Z,14.10
2022-10-21T21:48:37.189Z,14.20
2022-10-21T21:51:11.909Z,14.30
2022-10-21T21:53:38.954Z,14.20
2022-10-21T21:56:07.521Z,14.30
2022-10-21T21:58:34.308Z,14.20
2022-10-21T22:01:23.137Z,14.30
2022-10-21T22:03:51.810Z,14.20
2022-10-21T22:06:24.055Z,14.30
2022-10-21T22:08:51.072Z,14.20
2022-10-21T22:11:22.274Z,15.00
2022-10-21T22:13:49.938Z,14.20
2022-10-21T22:16:17.294Z,14.40
2022-10-21T22:18:44.177Z,14.20
2022-10-21T22:21:15.052Z,14.90
2022-10-21T22:23:42.740Z,14.30
2022-10-21T22:26:11.173Z,14.50
2022-10-21T22:28:38.550Z,14.70
2022-10-21T22:31:14.679Z,14.30
2022-10-21T22:36:10.852Z,14.10
2022-10-21T22:38:37.922Z,14.20
2022-10-21T22:41:08.429Z,14.30
2022-10-21T22:43:38.194Z,14.20
2022-10-21T22:46:21.467Z,14.30
2022-10-21T22:48:51.796Z,14.70
2022-10-21T22:51:18.604Z,14.40
2022-10-21T22:53:45.265Z,14.20
2022-10-21T22:56:12.160Z,14.60
2022-10-21T22:58:39.031Z,14.20
2022-10-21T23:01:09.818Z,14.50
2022-10-21T23:03:37.209Z,14.20
2022-10-21T23:06:04.112Z,14.20
2022-10-21T23:08:30.919Z,14.50
2022-10-21T23:10:58.739Z,14.80
2022-10-21T23:13:25.613Z,14.30
2022-10-21T23:15:52.300Z,14.80
2022-10-21T23:18:18.961Z,14.70
2022-10-21T23:20:46.189Z,14.20
2022-10-21T23:23:13.070Z,14.20
2022-10-21T23:25:39.965Z,14.30
2022-10-21T23:28:09.718Z,14.10
2022-10-21T23:30:37.821Z,14.10
2022-10-21T23:33:04.530Z,14.00
2022-10-21T23:35:31.317Z,14.30
2022-10-21T23:37:59.294Z,14.00
2022-10-21T23:40:26.421Z,13.80
2022-10-21T23:42:53.147Z,13.80
2022-10-21T23:45:19.913Z,13.50
2022-10-21T23:47:46.797Z,13.40
2022-10-21T23:50:13.888Z,13.40
2022-10-21T23:52:40.678Z,13.60
2022-10-21T23:55:08.702Z,13.70
2022-10-21T23:57:35.606Z,13.40
